Fillmore, New York
Current Conditions -  °F | °C
As of 3:15 PM on Monday 24 Nov 2014 (Local Time) from KOLE Reporting Station
Broken Clouds Broken Clouds  
Wind Chill: 59°   Ceiling: 9000
Heat Index: 59°   Visibility: 10mi
Dew Point: 45°   Wind: 18mph
Humidity: 59%   Direction: 230°SW
Pressure: 29.36"   Gusts: 28mph
Location:  42.47°N, 78.11°W
Report Text: KOLE 242015Z AUTO 23016G24KT 10SM BKN090 15/07 A2936 RMK AO2
Loading
Personal Weather Stations






























Interactive Weather Map New forecast layout! Learn more

10-Day Weather Forecast

Advertisements
Track Severe Weather on mobile